Time;durP1;ratioP1;P1;durP2;ratioP2;P2;SDS_P1;SDS_P2;PMS_P1;PMS_P2;Temp;Humidity;BMP_temperature;BMP_pressure;BME280_temperature;BME280_humidity;BME280_pressure;Samples;Min_cycle;Max_cycle;Signal;HPM_P1;HPM_P2
2023/10/29 00:00:16;;;;;;;6.47;3.03;;;11.10;99.90;;;;;;5103516;28;20233;-65
2023/10/29 00:02:44;;;;;;;3.03;2.40;;;11.10;99.90;;;;;;5102936;28;20208;-65
2023/10/29 00:05:10;;;;;;;4.83;2.43;;;11.10;99.90;;;;;;5103937;28;20234;-65
2023/10/29 00:07:39;;;;;;;4.83;2.90;;;11.10;99.90;;;;;;5102497;28;20206;-65
2023/10/29 00:10:08;;;;;;;4.50;2.60;;;11.10;99.90;;;;;;5103642;28;20210;-65
2023/10/29 00:12:35;;;;;;;4.23;2.70;;;11.10;99.90;;;;;;5103446;28;20210;-66
2023/10/29 00:15:03;;;;;;;3.90;2.87;;;11.00;99.90;;;;;;5103613;28;20303;-65
2023/10/29 00:17:30;;;;;;;6.47;2.70;;;11.00;99.90;;;;;;5102306;28;20314;-66
2023/10/29 00:19:59;;;;;;;4.17;2.57;;;11.00;99.90;;;;;;5084602;28;20242;-65
2023/10/29 00:22:26;;;;;;;3.37;2.70;;;11.00;99.90;;;;;;5082676;28;20213;-65
2023/10/29 00:24:53;;;;;;;3.63;2.70;;;10.90;99.90;;;;;;5084889;28;20202;-65
2023/10/29 00:27:21;;;;;;;4.00;2.43;;;11.00;99.90;;;;;;5082683;28;20210;-66
2023/10/29 00:29:48;;;;;;;7.30;2.40;;;10.90;99.90;;;;;;5083091;28;20207;-65
2023/10/29 00:32:18;;;;;;;3.53;2.20;;;10.90;99.90;;;;;;5084633;28;20229;-65
2023/10/29 00:34:45;;;;;;;3.13;2.83;;;10.90;99.90;;;;;;5082971;28;20211;-66
2023/10/29 00:37:13;;;;;;;2.47;2.27;;;10.90;99.90;;;;;;5082582;28;20235;-65
2023/10/29 00:39:40;;;;;;;4.90;2.90;;;10.80;99.90;;;;;;5082773;28;20318;-65
2023/10/29 00:42:07;;;;;;;7.40;2.40;;;10.90;99.90;;;;;;5099030;27;20197;-66
2023/10/29 00:44:36;;;;;;;2.90;2.30;;;10.80;99.90;;;;;;5126962;27;20299;-66
2023/10/29 00:47:03;;;;;;;4.40;2.47;;;10.80;99.90;;;;;;5090811;27;20218;-65
2023/10/29 00:49:30;;;;;;;1.93;1.83;;;10.80;99.90;;;;;;5095834;28;20717;-65
2023/10/29 00:51:57;;;;;;;4.27;2.30;;;10.80;99.90;;;;;;5107895;28;20212;-65
2023/10/29 00:54:24;;;;;;;4.27;2.40;;;10.80;99.90;;;;;;5095696;28;20209;-65
2023/10/29 00:56:53;;;;;;;3.23;2.50;;;10.80;99.90;;;;;;5102563;28;20216;-64
2023/10/29 00:59:20;;;;;;;2.40;1.80;;;10.80;99.90;;;;;;5107731;28;20229;-65
2023/10/29 01:01:49;;;;;;;4.43;2.07;;;10.80;99.90;;;;;;5102527;28;20763;-65
2023/10/29 01:04:16;;;;;;;3.23;1.90;;;10.80;99.90;;;;;;5090998;28;20322;-66
2023/10/29 01:06:44;;;;;;;3.70;2.10;;;10.80;99.90;;;;;;5087462;28;20310;-66
2023/10/29 01:09:12;;;;;;;3.63;2.03;;;10.80;99.90;;;;;;5087424;28;20330;-66
2023/10/29 01:11:39;;;;;;;2.97;1.97;;;10.80;99.90;;;;;;5087480;28;20669;-65
2023/10/29 01:14:06;;;;;;;2.93;2.00;;;10.80;99.90;;;;;;5087549;28;20305;-65
2023/10/29 01:16:33;;;;;;;2.57;1.53;;;10.80;99.90;;;;;;5087312;28;20210;-65
2023/10/29 01:19:01;;;;;;;2.57;1.67;;;10.80;99.90;;;;;;5087486;28;20202;-65
2023/10/29 01:21:29;;;;;;;1.83;1.67;;;10.80;99.90;;;;;;5088241;28;20246;-65
2023/10/29 01:23:56;;;;;;;2.23;1.90;;;10.80;99.90;;;;;;5107210;28;20213;-66
2023/10/29 01:26:24;;;;;;;1.83;1.60;;;10.80;99.90;;;;;;5100708;28;20956;-65
2023/10/29 01:28:51;;;;;;;2.83;1.63;;;10.80;99.90;;;;;;5087513;28;20213;-65
2023/10/29 01:31:17;;;;;;;4.50;1.53;;;10.80;99.90;;;;;;5087276;28;20210;-66
2023/10/29 01:33:44;;;;;;;2.53;1.70;;;10.80;99.90;;;;;;5096857;28;20832;-66
2023/10/29 01:36:13;;;;;;;2.80;1.60;;;10.80;99.90;;;;;;5107263;27;20756;-66
2023/10/29 01:38:39;;;;;;;1.40;1.30;;;10.80;99.90;;;;;;5107050;28;20212;-66
2023/10/29 01:41:06;;;;;;;2.53;1.60;;;10.70;99.90;;;;;;5107376;28;20230;-66
2023/10/29 01:43:33;;;;;;;3.70;1.77;;;10.80;99.90;;;;;;5107268;28;20245;-66
2023/10/29 01:46:00;;;;;;;2.27;1.47;;;10.80;99.90;;;;;;5107435;28;20198;-66
2023/10/29 01:48:27;;;;;;;3.30;1.80;;;10.80;99.90;;;;;;5107355;28;20293;-66
2023/10/29 01:50:55;;;;;;;2.10;1.33;;;10.80;99.90;;;;;;5098229;28;20724;-66
2023/10/29 01:53:24;;;;;;;2.80;1.40;;;10.80;99.90;;;;;;5105808;28;20198;-66
2023/10/29 01:55:50;;;;;;;2.63;1.33;;;10.70;99.90;;;;;;5106943;28;20297;-66
2023/10/29 01:58:17;;;;;;;1.83;1.63;;;10.80;99.90;;;;;;5086784;28;20289;-66
2023/10/29 02:00:45;;;;;;;6.87;2.00;;;10.80;99.90;;;;;;5086456;28;20234;-66
2023/10/29 02:03:12;;;;;;;1.57;1.40;;;10.80;99.90;;;;;;5091660;28;20657;-66
2023/10/29 02:05:39;;;;;;;3.60;1.50;;;10.80;99.90;;;;;;5107008;28;20210;-66
2023/10/29 02:08:06;;;;;;;1.73;1.50;;;10.70;99.90;;;;;;5105959;28;20296;-66
2023/10/29 02:10:34;;;;;;;3.10;1.63;;;10.80;99.90;;;;;;5106587;28;20295;-66
2023/10/29 02:13:01;;;;;;;1.70;1.60;;;10.80;99.90;;;;;;5106960;28;20198;-66
2023/10/29 02:15:28;;;;;;;2.57;1.63;;;10.80;99.90;;;;;;5107146;28;20629;-66
2023/10/29 02:17:55;;;;;;;2.23;1.60;;;10.80;99.90;;;;;;5104008;28;20217;-66
2023/10/29 02:20:21;;;;;;;2.47;1.40;;;10.80;99.90;;;;;;5086121;28;20903;-66
2023/10/29 02:22:50;;;;;;;3.50;1.90;;;10.80;99.90;;;;;;5087229;28;20571;-66
2023/10/29 02:25:17;;;;;;;4.53;1.77;;;10.80;99.90;;;;;;5088357;28;20293;-66
2023/10/29 02:27:43;;;;;;;2.03;1.60;;;10.80;99.90;;;;;;5088218;28;20281;-66
2023/10/29 02:30:12;;;;;;;2.23;1.40;;;10.80;99.90;;;;;;5088750;28;20216;-66
2023/10/29 02:32:39;;;;;;;2.43;1.43;;;10.80;99.90;;;;;;5105373;28;20206;-66
2023/10/29 02:35:07;;;;;;;1.43;1.33;;;10.90;99.90;;;;;;5092660;28;20213;-66
2023/10/29 02:37:34;;;;;;;2.70;1.60;;;10.80;99.90;;;;;;5086550;28;20254;-66
2023/10/29 02:40:03;;;;;;;1.90;1.50;;;10.80;99.90;;;;;;5095362;28;20324;-66
2023/10/29 02:42:30;;;;;;;2.57;1.50;;;10.90;99.90;;;;;;5106167;28;20252;-67
2023/10/29 02:44:58;;;;;;;4.40;1.80;;;10.90;99.90;;;;;;5106095;28;20210;-66
2023/10/29 02:47:25;;;;;;;2.17;1.97;;;10.80;99.90;;;;;;5089183;28;20215;-66
2023/10/29 02:49:52;;;;;;;1.63;1.53;;;10.80;99.90;;;;;;5112983;27;20292;-66
2023/10/29 02:52:19;;;;;;;2.33;1.67;;;10.90;99.90;;;;;;5097274;28;20301;-66
2023/10/29 02:54:46;;;;;;;2.13;1.93;;;10.90;99.90;;;;;;5094092;28;20297;-66
2023/10/29 02:57:14;;;;;;;3.23;1.43;;;10.90;99.90;;;;;;5088562;28;20285;-66
2023/10/29 02:59:41;;;;;;;3.43;1.90;;;10.90;99.90;;;;;;5098084;28;20198;-66
2023/10/29 03:02:08;;;;;;;2.90;1.80;;;10.90;99.90;;;;;;5095090;28;20203;-66
2023/10/29 03:04:34;;;;;;;1.30;1.20;;;10.90;99.90;;;;;;5101206;28;20236;-66
2023/10/29 03:07:01;;;;;;;3.47;2.17;;;10.90;99.90;;;;;;5105730;28;20206;-66
2023/10/29 03:09:27;;;;;;;3.00;1.50;;;10.90;99.90;;;;;;5105284;28;20853;-66
2023/10/29 03:11:54;;;;;;;1.30;1.30;;;10.90;99.90;;;;;;5105586;28;20202;-66
2023/10/29 03:14:22;;;;;;;2.93;1.60;;;10.90;99.90;;;;;;5100639;28;20293;-66
2023/10/29 03:16:49;;;;;;;3.40;1.73;;;10.90;99.90;;;;;;5085232;28;20220;-67
2023/10/29 03:19:16;;;;;;;4.20;1.90;;;10.90;99.90;;;;;;5084924;28;20249;-66
2023/10/29 03:21:43;;;;;;;3.87;1.80;;;10.90;99.90;;;;;;5085161;28;20230;-66
2023/10/29 03:24:10;;;;;;;3.43;1.73;;;10.90;99.90;;;;;;5084943;28;20711;-66
2023/10/29 03:26:37;;;;;;;2.20;2.00;;;10.90;99.90;;;;;;5085187;28;20737;-66
2023/10/29 03:29:04;;;;;;;2.57;1.70;;;10.90;99.90;;;;;;5085623;28;20202;-66
2023/10/29 03:31:32;;;;;;;2.90;1.77;;;10.90;99.90;;;;;;5100936;28;20289;-66
2023/10/29 03:33:59;;;;;;;2.80;2.10;;;10.80;99.90;;;;;;5095976;28;20215;-66
2023/10/29 03:36:25;;;;;;;3.23;1.70;;;10.80;99.90;;;;;;5104773;28;20779;-66
2023/10/29 03:38:52;;;;;;;2.97;2.07;;;10.80;99.90;;;;;;5105192;28;20208;-66
2023/10/29 03:41:21;;;;;;;3.90;2.20;;;10.80;99.90;;;;;;5103357;28;20234;-66
2023/10/29 03:43:48;;;;;;;2.13;1.87;;;10.80;99.90;;;;;;5084601;28;20810;-66
2023/10/29 03:46:15;;;;;;;2.30;2.10;;;10.80;99.90;;;;;;5093484;28;20760;-66
2023/10/29 03:48:45;;;;;;;2.70;2.10;;;10.80;99.90;;;;;;5083933;28;20210;-66
2023/10/29 03:51:12;;;;;;;3.17;2.10;;;10.80;99.90;;;;;;5083852;28;20263;-66
2023/10/29 03:53:39;;;;;;;3.57;2.03;;;10.80;99.90;;;;;;5084670;28;20217;-66
2023/10/29 03:56:06;;;;;;;2.00;1.80;;;10.80;99.90;;;;;;5084860;28;20310;-66
2023/10/29 03:58:34;;;;;;;5.63;2.03;;;10.80;99.90;;;;;;5102439;28;20300;-66
2023/10/29 04:01:01;;;;;;;2.10;1.87;;;10.80;99.90;;;;;;5093716;28;20262;-66
2023/10/29 04:03:29;;;;;;;3.20;1.97;;;10.80;99.90;;;;;;5092002;28;20267;-67
2023/10/29 04:05:57;;;;;;;4.57;2.27;;;10.80;99.90;;;;;;5104861;28;20206;-66
2023/10/29 04:08:24;;;;;;;3.53;1.97;;;10.80;99.90;;;;;;5105031;28;20206;-67
2023/10/29 04:10:51;;;;;;;2.90;2.20;;;10.80;99.90;;;;;;5104778;28;20799;-66
2023/10/29 04:13:19;;;;;;;4.90;2.03;;;10.80;99.90;;;;;;5104460;28;20241;-67
2023/10/29 04:15:46;;;;;;;3.50;2.10;;;10.80;99.90;;;;;;5088598;28;20210;-66
2023/10/29 04:18:13;;;;;;;4.50;2.07;;;10.90;99.90;;;;;;5088284;28;20289;-66
2023/10/29 04:20:40;;;;;;;2.80;2.00;;;10.80;99.90;;;;;;5088326;28;20223;-66
2023/10/29 04:23:08;;;;;;;2.23;1.70;;;10.80;99.90;;;;;;5088510;28;20281;-66
2023/10/29 04:25:35;;;;;;;5.07;1.97;;;10.90;99.90;;;;;;5088415;28;20203;-66
2023/10/29 04:28:03;;;;;;;2.20;2.00;;;10.90;99.90;;;;;;5106173;28;20325;-65
2023/10/29 04:30:29;;;;;;;3.00;1.83;;;10.90;99.90;;;;;;5108185;28;20282;-66
2023/10/29 04:32:56;;;;;;;2.80;1.90;;;10.90;99.90;;;;;;5100006;28;20271;-66
2023/10/29 04:35:23;;;;;;;3.93;1.80;;;10.90;99.90;;;;;;5087880;28;20744;-65
2023/10/29 04:37:50;;;;;;;4.37;2.00;;;10.90;99.90;;;;;;5087768;28;20325;-66
2023/10/29 04:40:18;;;;;;;2.00;1.80;;;10.90;99.90;;;;;;5089340;28;20314;-65
2023/10/29 04:42:45;;;;;;;4.13;2.50;;;10.90;99.90;;;;;;5108188;28;20202;-66
2023/10/29 04:45:12;;;;;;;3.47;2.10;;;10.90;99.90;;;;;;5108006;27;20300;-65
2023/10/29 04:47:40;;;;;;;2.80;1.90;;;10.90;99.90;;;;;;5107927;28;20210;-66
2023/10/29 04:50:08;;;;;;;4.07;2.07;;;10.90;99.90;;;;;;5090172;28;20291;-66
2023/10/29 04:52:35;;;;;;;1.80;1.70;;;10.90;99.90;;;;;;5087346;28;20396;-65
2023/10/29 04:55:01;;;;;;;6.30;2.00;;;10.90;99.90;;;;;;5107067;28;20285;-66
2023/10/29 04:57:30;;;;;;;5.30;1.83;;;10.90;99.90;;;;;;5107818;28;20224;-66
2023/10/29 04:59:57;;;;;;;5.57;1.90;;;10.90;99.90;;;;;;5107890;28;20313;-65
2023/10/29 05:02:24;;;;;;;2.10;1.63;;;10.90;99.90;;;;;;5107740;28;20226;-66
2023/10/29 05:04:53;;;;;;;3.80;1.93;;;10.90;99.90;;;;;;5104403;28;20239;-66
2023/10/29 05:07:20;;;;;;;3.07;1.80;;;10.90;99.90;;;;;;5086939;28;20210;-66
2023/10/29 05:09:47;;;;;;;3.60;1.97;;;10.90;99.90;;;;;;5087468;28;20621;-66
2023/10/29 05:12:14;;;;;;;6.53;2.30;;;10.90;99.90;;;;;;5105118;28;20286;-65
2023/10/29 05:14:43;;;;;;;3.47;1.93;;;10.90;99.90;;;;;;5107391;28;20293;-65
2023/10/29 05:17:10;;;;;;;5.10;1.87;;;10.90;99.90;;;;;;5107464;28;20989;-65
2023/10/29 05:19:39;;;;;;;3.83;2.27;;;11.00;99.90;;;;;;5107391;28;20275;-65
2023/10/29 05:22:05;;;;;;;2.10;1.80;;;11.00;99.90;;;;;;5106898;28;20261;-65
2023/10/29 05:24:32;;;;;;;3.03;1.90;;;11.00;99.90;;;;;;5106784;27;20613;-66
2023/10/29 05:26:59;;;;;;;2.40;1.73;;;11.00;99.90;;;;;;5104198;28;20769;-65
2023/10/29 05:29:27;;;;;;;2.80;1.80;;;11.00;99.90;;;;;;5107189;27;20720;-65
2023/10/29 05:31:55;;;;;;;4.27;2.23;;;11.10;99.90;;;;;;5105797;28;20209;-65
2023/10/29 05:34:22;;;;;;;3.57;2.03;;;11.10;99.90;;;;;;5100505;28;20320;-66
2023/10/29 05:36:49;;;;;;;4.93;1.87;;;11.10;99.90;;;;;;5090239;28;20236;-65
2023/10/29 05:39:17;;;;;;;2.37;1.70;;;11.10;99.90;;;;;;5106417;28;20748;-65
2023/10/29 05:41:44;;;;;;;5.57;2.00;;;11.10;99.90;;;;;;5106692;28;20241;-65
2023/10/29 05:44:11;;;;;;;6.33;1.90;;;11.10;99.90;;;;;;5107319;28;20234;-65
2023/10/29 05:46:38;;;;;;;4.43;1.93;;;11.10;99.90;;;;;;5106904;28;20237;-65
2023/10/29 05:49:07;;;;;;;3.90;1.90;;;11.10;99.90;;;;;;5105398;28;20298;-65
2023/10/29 05:51:34;;;;;;;2.33;1.87;;;11.10;99.90;;;;;;5086286;28;20203;-65
2023/10/29 05:54:01;;;;;;;4.00;2.10;;;11.10;99.90;;;;;;5086379;28;20248;-65
2023/10/29 05:56:28;;;;;;;2.10;1.87;;;11.10;99.90;;;;;;5085988;28;20242;-65
2023/10/29 05:58:55;;;;;;;3.27;2.00;;;11.10;99.90;;;;;;5086200;28;20410;-65
2023/10/29 06:01:21;;;;;;;3.50;1.77;;;11.10;99.90;;;;;;5086050;28;20324;-65
2023/10/29 06:03:48;;;;;;;2.67;1.73;;;11.10;99.90;;;;;;5095815;28;20710;-65
2023/10/29 06:06:17;;;;;;;4.77;1.63;;;11.10;99.90;;;;;;5106460;28;20206;-65
2023/10/29 06:08:43;;;;;;;3.50;2.20;;;11.10;99.90;;;;;;5085804;27;20234;-66
2023/10/29 06:11:10;;;;;;;3.17;1.90;;;11.10;99.90;;;;;;5099050;28;20198;-66
2023/10/29 06:13:37;;;;;;;3.33;1.90;;;11.20;99.90;;;;;;5087582;28;20330;-66
2023/10/29 06:16:08;;;;;;;2.83;1.97;;;11.20;99.90;;;;;;5096991;28;20195;-66
2023/10/29 06:18:35;;;;;;;3.37;1.80;;;11.20;99.90;;;;;;5104249;28;20568;-66
2023/10/29 06:21:02;;;;;;;4.63;3.50;;;11.20;99.90;;;;;;5093503;28;20230;-66
2023/10/29 06:23:30;;;;;;;7.10;3.37;;;11.20;99.90;;;;;;5096854;28;20238;-67
2023/10/29 06:25:57;;;;;;;4.63;4.23;;;11.20;99.90;;;;;;5087668;28;20211;-66
2023/10/29 06:28:24;;;;;;;5.83;3.97;;;11.20;99.90;;;;;;5085855;28;20402;-67
2023/10/29 06:30:52;;;;;;;4.63;4.03;;;11.20;99.90;;;;;;5086001;28;20538;-66
2023/10/29 06:33:18;;;;;;;8.43;5.63;;;11.20;99.90;;;;;;5091451;28;20286;-66
2023/10/29 06:35:45;;;;;;;10.00;8.80;;;11.20;99.90;;;;;;5105946;28;20293;-67
2023/10/29 06:38:13;;;;;;;5.97;4.50;;;11.20;99.90;;;;;;5105921;28;20218;-66
2023/10/29 06:40:42;;;;;;;3.27;2.70;;;11.20;99.90;;;;;;5104986;28;20198;-66
2023/10/29 06:43:08;;;;;;;5.57;2.63;;;11.20;99.90;;;;;;5105743;28;20285;-66
2023/10/29 06:45:35;;;;;;;4.07;2.17;;;11.20;99.90;;;;;;5102243;27;20768;-66
2023/10/29 06:48:02;;;;;;;4.37;1.90;;;11.20;99.90;;;;;;5085457;28;20614;-66
2023/10/29 06:50:28;;;;;;;3.17;2.07;;;11.30;99.90;;;;;;5097209;28;20732;-66
2023/10/29 06:52:55;;;;;;;3.63;2.30;;;11.20;99.90;;;;;;5105927;28;20198;-66
2023/10/29 06:55:23;;;;;;;4.47;4.03;;;11.30;99.90;;;;;;5088420;28;20199;-66
2023/10/29 06:57:51;;;;;;;4.80;2.30;;;11.30;99.90;;;;;;5086123;28;20210;-66
2023/10/29 07:00:18;;;;;;;3.37;1.77;;;11.30;99.90;;;;;;5085810;28;20302;-67
2023/10/29 07:02:44;;;;;;;4.97;2.00;;;11.30;99.90;;;;;;5085727;28;20245;-66
2023/10/29 07:05:11;;;;;;;4.40;2.00;;;11.30;99.90;;;;;;5086753;28;20199;-66
2023/10/29 07:07:38;;;;;;;3.30;1.90;;;11.30;99.90;;;;;;5087787;28;20203;-66
2023/10/29 07:10:07;;;;;;;3.07;1.97;;;11.30;99.90;;;;;;5085119;28;20206;-66
2023/10/29 07:12:34;;;;;;;1.67;1.57;;;11.30;99.90;;;;;;5084998;28;20250;-65
2023/10/29 07:15:03;;;;;;;2.93;1.93;;;11.30;99.90;;;;;;5088216;28;20733;-65
2023/10/29 07:17:30;;;;;;;2.70;1.97;;;11.30;99.90;;;;;;5105419;28;20210;-65
2023/10/29 07:19:57;;;;;;;3.73;1.90;;;11.30;99.90;;;;;;5095367;28;20203;-65
2023/10/29 07:22:24;;;;;;;2.07;1.60;;;11.30;99.90;;;;;;5094491;28;20225;-65
2023/10/29 07:24:50;;;;;;;3.57;1.73;;;11.30;99.90;;;;;;5105432;28;20292;-65
2023/10/29 07:27:17;;;;;;;5.17;1.90;;;11.40;99.90;;;;;;5096146;28;20278;-65
2023/10/29 07:29:44;;;;;;;2.80;1.77;;;11.40;99.90;;;;;;5105699;28;20321;-65
2023/10/29 07:32:12;;;;;;;3.00;1.80;;;11.40;99.90;;;;;;5105985;28;20206;-65
2023/10/29 07:34:39;;;;;;;4.30;1.87;;;11.40;99.90;;;;;;5104039;28;20321;-65
2023/10/29 07:37:06;;;;;;;1.90;1.70;;;11.40;99.90;;;;;;5105120;28;20321;-65
2023/10/29 07:39:33;;;;;;;2.77;1.80;;;11.40;99.90;;;;;;5105516;28;20293;-65
2023/10/29 07:42:02;;;;;;;2.93;1.37;;;11.40;99.90;;;;;;5105477;28;20253;-65
2023/10/29 07:44:29;;;;;;;7.20;1.80;;;11.40;99.90;;;;;;5105411;28;20245;-65
2023/10/29 07:46:55;;;;;;;3.43;1.77;;;11.40;99.90;;;;;;5105424;28;20292;-66
2023/10/29 07:49:24;;;;;;;3.57;1.73;;;11.40;99.90;;;;;;5105187;28;20204;-65
2023/10/29 07:51:51;;;;;;;2.80;1.63;;;11.40;99.90;;;;;;5101578;28;20202;-64
2023/10/29 07:54:17;;;;;;;10.47;2.33;;;11.30;99.90;;;;;;5088808;28;20730;-66
2023/10/29 07:56:45;;;;;;;3.07;1.70;;;11.30;99.90;;;;;;5089313;28;20265;-66
2023/10/29 07:59:12;;;;;;;3.93;1.97;;;11.30;99.90;;;;;;5089410;28;20210;-65
2023/10/29 08:01:39;;;;;;;5.67;1.80;;;11.30;99.90;;;;;;5089029;28;20313;-65
2023/10/29 08:04:07;;;;;;;4.97;1.60;;;11.30;99.90;;;;;;5100062;27;20206;-65
2023/10/29 08:06:36;;;;;;;2.77;1.60;;;11.20;99.90;;;;;;5107439;28;20206;-65
2023/10/29 08:09:02;;;;;;;4.87;2.30;;;11.30;99.90;;;;;;5107664;28;20202;-65
2023/10/29 08:11:29;;;;;;;3.37;1.63;;;11.30;99.90;;;;;;5102281;28;20229;-65
2023/10/29 08:13:56;;;;;;;3.80;2.00;;;11.30;99.90;;;;;;5087102;28;20965;-65
2023/10/29 08:16:23;;;;;;;4.33;2.13;;;11.20;99.90;;;;;;5099636;28;20233;-67
2023/10/29 08:18:50;;;;;;;2.70;1.87;;;11.20;99.90;;;;;;5107247;28;20263;-65
2023/10/29 08:21:18;;;;;;;2.23;1.80;;;11.30;99.90;;;;;;5107427;28;20293;-65
2023/10/29 08:23:46;;;;;;;6.30;1.90;;;11.30;99.90;;;;;;5100571;28;20206;-65
2023/10/29 08:26:14;;;;;;;5.97;1.80;;;11.30;99.90;;;;;;5090824;28;20198;-65
2023/10/29 08:28:40;;;;;;;3.93;2.17;;;11.30;99.90;;;;;;5086487;28;20203;-66
2023/10/29 08:31:08;;;;;;;3.77;1.83;;;11.30;99.90;;;;;;5088471;28;20203;-66
2023/10/29 08:33:35;;;;;;;2.63;1.80;;;11.30;99.90;;;;;;5094395;28;20557;-66
2023/10/29 08:36:02;;;;;;;4.57;2.10;;;11.30;99.90;;;;;;5088205;28;20231;-66
2023/10/29 08:38:29;;;;;;;3.83;2.00;;;11.30;99.90;;;;;;5094396;28;20289;-66
2023/10/29 08:40:57;;;;;;;4.07;2.00;;;11.30;99.90;;;;;;5108986;28;20285;-66
2023/10/29 08:43:24;;;;;;;5.07;1.87;;;11.40;99.90;;;;;;5105789;28;20233;-66
2023/10/29 08:45:51;;;;;;;3.70;2.00;;;11.40;99.90;;;;;;5086680;28;21110;-66
2023/10/29 08:48:18;;;;;;;3.43;2.00;;;11.40;99.90;;;;;;5093032;28;20206;-66
2023/10/29 08:50:45;;;;;;;5.30;2.07;;;11.50;99.90;;;;;;5106258;28;20217;-66
2023/10/29 08:53:12;;;;;;;2.20;2.00;;;11.50;99.90;;;;;;5106474;28;20304;-66
2023/10/29 08:55:38;;;;;;;1.87;1.77;;;11.50;99.90;;;;;;5106197;28;20206;-66
2023/10/29 08:58:09;;;;;;;6.20;1.87;;;11.50;99.90;;;;;;5106668;28;20949;-66
2023/10/29 09:00:36;;;;;;;3.33;1.80;;;11.60;99.90;;;;;;5106524;28;20199;-66
2023/10/29 09:03:03;;;;;;;5.87;1.90;;;11.60;99.90;;;;;;5108445;27;20272;-66
2023/10/29 09:05:30;;;;;;;2.07;1.80;;;11.60;99.90;;;;;;5126836;27;20216;-66
2023/10/29 09:07:57;;;;;;;2.17;1.60;;;11.60;99.90;;;;;;5126671;27;20261;-66
2023/10/29 09:10:24;;;;;;;4.40;1.80;;;11.60;99.90;;;;;;5114444;27;20322;-66
2023/10/29 09:12:50;;;;;;;3.00;2.00;;;11.60;99.90;;;;;;5098574;28;20815;-66
2023/10/29 09:15:19;;;;;;;2.33;1.50;;;11.70;99.90;;;;;;5089665;28;20805;-66
2023/10/29 09:17:46;;;;;;;1.70;1.60;;;11.70;99.90;;;;;;5105876;27;20202;-66
2023/10/29 09:20:13;;;;;;;1.83;1.70;;;11.70;99.90;;;;;;5086621;28;20211;-66
2023/10/29 09:22:40;;;;;;;2.87;1.90;;;11.70;99.90;;;;;;5085909;28;20226;-66
2023/10/29 09:25:08;;;;;;;4.07;1.47;;;11.80;99.90;;;;;;5086079;28;20211;-66
2023/10/29 09:27:34;;;;;;;2.20;1.40;;;11.80;99.90;;;;;;5085839;28;20207;-66
2023/10/29 09:30:01;;;;;;;2.30;1.80;;;11.80;99.90;;;;;;5085962;28;20319;-66
2023/10/29 09:32:31;;;;;;;4.20;1.60;;;11.90;99.90;;;;;;5085370;28;20305;-66
2023/10/29 09:34:58;;;;;;;2.53;1.40;;;11.90;99.90;;;;;;5102348;28;20264;-66
2023/10/29 09:37:25;;;;;;;3.33;1.70;;;11.90;99.90;;;;;;5085038;28;20342;-66
2023/10/29 09:39:52;;;;;;;3.27;1.43;;;11.90;99.90;;;;;;5085743;28;20732;-66
2023/10/29 09:42:25;;;;;;;4.37;1.73;;;12.00;99.90;;;;;;5084969;28;20760;-66
2023/10/29 09:44:55;;;;;;;3.03;1.90;;;12.00;99.90;;;;;;5104342;28;20205;-65
2023/10/29 09:47:23;;;;;;;3.07;1.33;;;12.00;99.90;;;;;;5104898;28;20852;-68
2023/10/29 09:49:51;;;;;;;4.13;1.60;;;12.00;99.90;;;;;;5105660;28;20214;-68
2023/10/29 09:52:20;;;;;;;1.93;1.70;;;12.00;99.90;;;;;;5104682;27;20559;-66
2023/10/29 09:54:47;;;;;;;3.00;2.00;;;12.00;99.90;;;;;;5105245;28;20320;-66
2023/10/29 09:57:14;;;;;;;3.87;1.50;;;12.00;99.90;;;;;;5105234;28;20214;-66
2023/10/29 09:59:41;;;;;;;6.27;2.47;;;12.00;99.90;;;;;;5104630;28;20270;-70
2023/10/29 10:02:08;;;;;;;3.73;3.03;;;12.00;99.90;;;;;;5105923;28;20237;-66
2023/10/29 10:04:38;;;;;;;2.57;2.37;;;12.00;99.90;;;;;;5104769;28;20208;-65
2023/10/29 10:07:06;;;;;;;2.50;1.67;;;12.00;99.90;;;;;;5105351;28;20237;-65
2023/10/29 10:09:51;;;;;;;2.20;1.40;;;12.10;99.90;;;;;;5088189;28;20199;-66
2023/10/29 10:12:18;;;;;;;2.07;1.23;;;12.10;99.90;;;;;;5106669;28;21149;-66
2023/10/29 10:14:46;;;;;;;1.90;1.57;;;12.10;99.90;;;;;;5105346;28;20779;-66
2023/10/29 10:17:14;;;;;;;2.87;1.40;;;12.10;99.90;;;;;;5102846;28;20210;-66
2023/10/29 10:19:41;;;;;;;3.03;1.60;;;12.10;99.90;;;;;;5101244;28;20202;-66
2023/10/29 10:22:10;;;;;;;1.93;1.53;;;12.10;99.90;;;;;;5105307;28;20198;-66
2023/10/29 10:24:39;;;;;;;2.37;1.27;;;12.20;99.90;;;;;;5092984;28;20198;-66
2023/10/29 10:27:06;;;;;;;1.93;1.20;;;12.20;99.90;;;;;;5095618;28;20276;-66
2023/10/29 10:29:34;;;;;;;3.47;2.30;;;12.20;99.90;;;;;;5105394;28;20202;-66
2023/10/29 10:32:02;;;;;;;2.00;1.60;;;12.20;99.90;;;;;;5100101;27;20213;-66
2023/10/29 10:34:31;;;;;;;2.50;1.30;;;12.20;99.90;;;;;;5103306;28;20210;-66
2023/10/29 10:37:00;;;;;;;1.87;1.30;;;12.20;99.90;;;;;;5106243;28;20488;-66
2023/10/29 10:39:31;;;;;;;2.00;1.50;;;12.20;99.90;;;;;;5095565;28;20259;-66
2023/10/29 10:42:00;;;;;;;2.13;1.20;;;12.20;99.90;;;;;;5106373;28;20220;-66
2023/10/29 10:44:29;;;;;;;2.50;1.50;;;12.20;99.90;;;;;;5102608;28;20198;-66
2023/10/29 10:46:58;;;;;;;1.07;1.07;;;12.20;99.90;;;;;;5105375;28;20207;-66
2023/10/29 10:49:25;;;;;;;1.60;1.50;;;12.20;99.90;;;;;;5100028;28;20210;-66
2023/10/29 10:51:55;;;;;;;3.63;1.30;;;12.20;99.90;;;;;;5105503;28;20281;-66
2023/10/29 10:54:22;;;;;;;2.30;2.10;;;12.20;99.90;;;;;;5103682;28;20285;-66
2023/10/29 10:56:52;;;;;;;2.40;2.00;;;12.30;99.90;;;;;;5103300;28;20290;-66
2023/10/29 10:59:20;;;;;;;2.43;1.10;;;12.30;99.90;;;;;;5105876;28;20205;-66
2023/10/29 11:01:48;;;;;;;1.23;1.20;;;12.40;99.90;;;;;;5105587;28;20667;-66
2023/10/29 11:04:16;;;;;;;2.60;1.20;;;12.40;99.90;;;;;;5105353;28;20264;-66
2023/10/29 11:06:44;;;;;;;2.63;1.17;;;12.50;99.90;;;;;;5105335;28;20199;-66
2023/10/29 11:09:13;;;;;;;1.70;1.07;;;12.60;99.90;;;;;;5103482;28;20204;-66
2023/10/29 11:11:45;;;;;;;2.03;1.30;;;12.70;99.90;;;;;;5099293;28;20655;-66
2023/10/29 11:14:15;;;;;;;2.17;1.00;;;12.80;99.90;;;;;;5092158;28;20301;-66
2023/10/29 11:16:50;;;;;;;1.43;1.03;;;12.90;99.90;;;;;;5102735;28;20198;-66
2023/10/29 11:19:42;;;;;;;2.33;0.93;;;12.90;99.90;;;;;;5102774;28;20200;-66
2023/10/29 11:22:19;;;;;;;1.10;1.00;;;12.90;99.90;;;;;;5102577;28;20190;-66
2023/10/29 11:25:28;;;;;;;1.30;1.20;;;12.80;99.90;;;;;;5101567;28;20295;-67
2023/10/29 11:27:55;;;;;;;1.10;1.00;;;12.90;99.90;;;;;;5100555;28;20209;-64
2023/10/29 11:30:27;;;;;;;0.93;0.90;;;12.90;99.90;;;;;;5104865;28;20225;-64
2023/10/29 11:33:15;;;;;;;1.23;1.13;;;12.90;99.90;;;;;;5104704;28;20198;-65
2023/10/29 11:35:42;;;;;;;2.33;1.27;;;12.90;99.90;;;;;;5104804;28;20203;-65
2023/10/29 11:38:28;;;;;;;1.37;1.10;;;12.90;99.90;;;;;;5105307;28;20634;-65
2023/10/29 11:40:54;;;;;;;2.83;1.10;;;12.90;99.90;;;;;;5105020;28;20286;-64
2023/10/29 11:43:23;;;;;;;1.40;0.90;;;12.90;99.90;;;;;;5104567;28;20233;-66
2023/10/29 11:46:01;;;;;;;1.13;0.90;;;12.90;99.90;;;;;;5104672;28;20793;-66
2023/10/29 11:48:30;;;;;;;2.07;0.90;;;13.00;99.90;;;;;;5104610;28;20190;-66
2023/10/29 11:51:29;;;;;;;1.43;1.03;;;13.00;99.90;;;;;;5104440;28;20206;-68
2023/10/29 11:54:02;;;;;;;1.20;1.10;;;13.10;99.90;;;;;;5104977;28;20298;-66
2023/10/29 11:56:33;;;;;;;1.50;0.90;;;13.10;99.90;;;;;;5099675;28;20198;-65
2023/10/29 11:59:05;;;;;;;0.90;0.90;;;13.10;99.90;;;;;;5103160;28;20288;-64
2023/10/29 12:01:33;;;;;;;2.63;1.27;;;13.20;99.90;;;;;;5102336;28;20232;-67
2023/10/29 12:04:00;;;;;;;1.10;1.00;;;13.20;99.90;;;;;;5098616;28;20251;-66
2023/10/29 12:06:41;;;;;;;1.00;1.00;;;13.20;99.90;;;;;;5104502;28;20314;-64
2023/10/29 12:09:16;;;;;;;2.77;1.00;;;13.30;99.90;;;;;;5099382;28;20202;-65
2023/10/29 12:11:43;;;;;;;2.47;1.03;;;13.40;99.90;;;;;;5101815;28;20194;-66
2023/10/29 12:14:10;;;;;;;2.10;1.03;;;13.70;99.90;;;;;;5103780;28;20391;-65
2023/10/29 12:16:39;;;;;;;0.80;0.80;;;13.80;99.90;;;;;;5104536;28;20918;-65
2023/10/29 12:19:06;;;;;;;0.90;0.90;;;14.00;99.90;;;;;;5101513;28;20200;-66
2023/10/29 12:21:33;;;;;;;3.07;0.90;;;14.00;99.90;;;;;;5104619;28;20208;-65
2023/10/29 12:24:02;;;;;;;1.50;1.10;;;14.10;99.90;;;;;;5104409;28;20245;-65
2023/10/29 12:26:29;;;;;;;1.43;1.30;;;14.10;99.90;;;;;;5102878;28;20305;-65
2023/10/29 12:28:56;;;;;;;1.20;1.10;;;14.10;99.90;;;;;;5104055;28;20276;-65
2023/10/29 12:31:24;;;;;;;2.00;1.13;;;14.10;99.90;;;;;;5103841;28;20300;-66
2023/10/29 12:33:57;;;;;;;4.10;1.37;;;14.10;99.90;;;;;;5102856;28;20209;-66
2023/10/29 12:36:25;;;;;;;2.37;0.93;;;14.20;99.90;;;;;;5101553;28;20241;-66
2023/10/29 12:38:53;;;;;;;1.90;1.07;;;14.20;99.90;;;;;;5107693;28;20207;-65
2023/10/29 12:41:23;;;;;;;1.70;1.20;;;14.20;99.90;;;;;;5107927;28;20727;-65
2023/10/29 12:43:52;;;;;;;3.00;1.20;;;14.20;99.90;;;;;;5105374;28;20218;-65
2023/10/29 12:46:20;;;;;;;2.13;1.37;;;14.20;99.90;;;;;;5105302;28;20287;-65
2023/10/29 12:48:59;;;;;;;1.30;1.00;;;14.20;99.90;;;;;;5108435;28;20565;-66
2023/10/29 12:51:29;;;;;;;1.17;1.00;;;14.20;99.90;;;;;;5106144;27;20673;-65